Time;durP1;ratioP1;P1;durP2;ratioP2;P2;SDS_P1;SDS_P2;PMS_P1;PMS_P2;Temp;Humidity;BMP_temperature;BMP_pressure;BME280_temperature;BME280_humidity;BME280_pressure;Samples;Min_cycle;Max_cycle;Signal;HPM_P1;HPM_P2
2021/06/28 00:01:38;;;;;;;4.00;2.20;;;;;;;22.29;64.87;101588.75;4832825;29;20022;-93
2021/06/28 00:04:04;;;;;;;2.40;2.20;;;;;;;22.29;64.45;101591.38;4855960;24;20059;-92
2021/06/28 00:06:32;;;;;;;4.03;1.88;;;;;;;22.28;64.88;101593.13;4882387;29;20047;-93
2021/06/28 00:09:02;;;;;;;2.33;2.00;;;;;;;22.28;64.84;101593.13;4889367;29;20053;-93
2021/06/28 00:15:05;;;;;;;2.28;2.08;;;;;;;22.29;64.48;101594.84;5170712;23;20106;-93
2021/06/28 00:17:31;;;;;;;2.63;2.00;;;;;;;22.29;64.81;101593.97;4878064;29;20057;-94
2021/06/28 00:20:00;;;;;;;2.25;2.00;;;;;;;22.29;64.64;101584.34;4848054;29;20049;-94
2021/06/28 00:22:34;;;;;;;2.20;2.00;;;;;;;22.29;64.58;101578.25;4844601;29;20038;-95
2021/06/28 00:25:04;;;;;;;;;;;;;;;22.30;64.71;101577.38;4846905;29;20045;-94
2021/06/28 00:27:40;;;;;;;;;;;;;;;;;;;;;
2021/06/28 00:30:39;;;;;;;2.10;1.90;;;;;;;22.29;64.72;101573.00;4879235;29;20049;-94
2021/06/28 00:33:17;;;;;;;2.38;2.17;;;;;;;22.30;64.18;101575.63;4846550;29;20114;-93
2021/06/28 00:39:50;;;;;;;;;;;;;;;;;;;;;
2021/06/28 00:42:17;;;;;;;2.63;2.15;;;;;;;22.29;64.12;101558.13;4857317;29;20069;-94
2021/06/28 00:44:48;;;;;;;2.85;2.03;;;;;;;22.30;64.37;101561.66;4840447;29;20033;-94
2021/06/28 00:47:13;;;;;;;2.13;1.92;;;;;;;22.29;64.06;101557.28;4839270;29;20042;-96
2021/06/28 00:49:40;;;;;;;2.10;1.90;;;;;;;22.28;63.99;101553.81;4838039;29;20026;-95
2021/06/28 00:52:07;;;;;;;2.70;2.30;;;;;;;22.29;64.38;101552.03;4823087;29;20123;-94
2021/06/28 00:54:34;;;;;;;2.17;1.98;;;;;;;22.30;63.93;101553.78;4835650;29;20066;-94
2021/06/28 00:57:03;;;;;;;2.25;2.05;;;;;;;22.30;63.87;101553.78;4836087;29;20098;-94
2021/06/28 00:59:33;;;;;;;3.97;2.20;;;;;;;22.29;64.49;101547.66;4820160;29;20030;-94
2021/06/28 01:05:45;;;;;;;2.38;2.00;;;;;;;22.31;63.88;101538.00;4842690;29;20102;-94
2021/06/28 01:08:12;;;;;;;2.40;1.95;;;;;;;22.32;63.86;101538.84;4844749;29;20053;-95
2021/06/28 01:10:38;;;;;;;2.20;2.00;;;;;;;22.31;63.95;101535.38;4831597;29;20428;-94
2021/06/28 01:20:14;;;;;;;2.20;2.00;;;;;;;22.32;63.92;101528.38;4904711;24;20057;-94
2021/06/28 01:22:54;;;;;;;2.50;2.05;;;;;;;22.30;64.00;101528.41;4888006;29;20091;-95
2021/06/28 01:25:25;;;;;;;2.42;2.00;;;;;;;22.33;63.86;101530.13;4885071;29;20045;-94
2021/06/28 01:28:02;;;;;;;2.20;2.00;;;;;;;22.31;63.72;101526.66;4884581;29;20025;-95
2021/06/28 01:30:38;;;;;;;2.25;2.05;;;;;;;22.32;63.75;101525.75;4882709;29;20425;-95
2021/06/28 01:36:47;;;;;;;2.20;1.90;;;;;;;22.31;63.59;101505.69;4878665;29;20161;-94
2021/06/28 01:39:18;;;;;;;2.30;1.77;;;;;;;22.30;63.66;101507.44;4880278;29;20037;-94
2021/06/28 01:41:44;;;;;;;2.10;1.90;;;;;;;22.30;63.62;101515.31;4898782;29;20025;-94
2021/06/28 01:47:39;;;;;;;2.30;2.10;;;;;;;22.29;63.34;101508.31;4899524;29;20456;-94
2021/06/28 01:50:10;;;;;;;2.00;1.80;;;;;;;22.31;63.26;101510.91;4883373;29;20112;-94
2021/06/28 01:52:38;;;;;;;2.15;1.95;;;;;;;22.29;63.33;101510.94;4882839;29;20048;-94
2021/06/28 01:58:46;;;;;;;2.05;1.85;;;;;;;22.30;63.24;101512.69;4880533;29;20113;-95
2021/06/28 02:01:14;;;;;;;2.30;2.10;;;;;;;22.31;63.04;101524.03;4950888;24;20073;-94
2021/06/28 02:03:39;;;;;;;2.33;1.92;;;;;;;22.30;63.33;101523.19;4892496;29;20029;-94
2021/06/28 02:06:05;;;;;;;2.03;1.73;;;;;;;22.30;63.14;101517.06;4878074;29;20044;-95
2021/06/28 02:08:35;;;;;;;2.25;2.05;;;;;;;22.30;63.44;101517.06;4866082;29;20029;-94
2021/06/28 02:11:04;;;;;;;2.30;2.10;;;;;;;22.31;63.32;101513.53;4867345;29;20033;-94
2021/06/28 02:13:35;;;;;;;2.22;1.80;;;;;;;22.31;63.17;101516.16;4881675;29;20025;-95
2021/06/28 02:16:00;;;;;;;2.03;1.83;;;;;;;22.30;62.93;101503.97;4880952;29;20029;-94
2021/06/28 02:25:12;;;;;;;1.90;1.80;;;;;;;22.31;62.74;101505.69;4896856;29;20052;-95
2021/06/28 02:27:39;;;;;;;2.10;1.90;;;;;;;22.30;62.98;101510.06;4864682;29;20033;-95
2021/06/28 02:34:17;;;;;;;2.00;1.80;;;;;;;22.31;62.98;101522.25;4858782;29;20049;-95
2021/06/28 02:36:42;;;;;;;2.40;1.98;;;;;;;22.30;62.75;101523.19;4857269;29;20046;-94
2021/06/28 02:39:11;;;;;;;2.03;1.83;;;;;;;22.30;62.85;101522.31;4839448;29;20045;-95
2021/06/28 02:41:37;;;;;;;2.25;2.05;;;;;;;22.30;62.76;101527.56;4823039;29;20044;-94
2021/06/28 02:44:04;;;;;;;1.77;1.67;;;;;;;22.30;63.00;101528.41;4838174;29;20112;-94
2021/06/28 02:46:33;;;;;;;2.20;2.00;;;;;;;22.29;62.82;101529.28;4835746;29;20038;-94
2021/06/28 02:49:01;;;;;;;2.67;1.75;;;;;;;22.29;62.93;101539.78;4837349;29;20030;-94
2021/06/28 02:51:26;;;;;;;5.03;1.90;;;;;;;22.29;62.93;101536.31;4823316;29;20065;-94
2021/06/28 02:54:02;;;;;;;1.80;1.70;;;;;;;22.28;63.04;101535.44;4837400;29;20029;-93
2021/06/28 02:56:30;;;;;;;2.20;2.00;;;;;;;22.29;62.75;101545.03;4837451;29;20131;-93
2021/06/28 02:58:57;;;;;;;1.73;1.63;;;;;;;22.30;62.61;101544.16;4840489;29;20053;-93
2021/06/28 03:01:25;;;;;;;2.13;1.85;;;;;;;22.31;62.59;101537.13;4838835;29;20097;-92
2021/06/28 03:03:54;;;;;;;2.45;2.10;;;;;;;22.30;62.54;101533.66;4839588;29;20109;-93
2021/06/28 03:06:20;;;;;;;1.90;1.70;;;;;;;22.31;62.54;101530.13;4838981;29;20030;-94
2021/06/28 03:08:49;;;;;;;2.08;1.80;;;;;;;22.30;62.43;101525.78;4839032;29;20034;-93
2021/06/28 03:11:17;;;;;;;2.10;1.90;;;;;;;22.30;62.69;101515.31;4838681;29;20079;-93
2021/06/28 03:13:43;;;;;;;2.20;2.00;;;;;;;22.30;62.76;101523.19;4838371;29;20034;-93
2021/06/28 03:16:12;;;;;;;1.83;1.70;;;;;;;22.31;62.57;101543.25;4838602;29;20055;-93
2021/06/28 03:18:39;;;;;;;1.88;1.67;;;;;;;22.30;62.71;101541.53;4841746;29;20090;-93
2021/06/28 03:21:07;;;;;;;1.92;1.60;;;;;;;22.31;62.42;101543.25;4842519;29;20013;-93
2021/06/28 03:23:36;;;;;;;2.17;1.77;;;;;;;22.32;62.71;101536.22;4843384;29;20030;-93
2021/06/28 03:26:02;;;;;;;1.80;1.63;;;;;;;22.31;62.65;101532.75;4843709;29;20470;-92
2021/06/28 03:28:28;;;;;;;2.13;1.90;;;;;;;22.32;62.65;101534.50;4845804;29;20045;-94
2021/06/28 03:30:54;;;;;;;1.88;1.73;;;;;;;22.32;62.64;101538.84;4840411;29;20053;-92
2021/06/28 03:33:21;;;;;;;2.00;1.80;;;;;;;22.31;62.33;101535.38;4856446;29;20026;-91
2021/06/28 03:35:47;;;;;;;1.50;1.40;;;;;;;22.31;62.44;101530.13;4853238;29;20041;-91
2021/06/28 03:38:12;;;;;;;1.83;1.67;;;;;;;22.31;62.58;101531.91;4857161;29;20053;-93
2021/06/28 03:40:38;;;;;;;1.80;1.70;;;;;;;22.33;62.26;101533.59;4857063;29;20038;-92
2021/06/28 03:43:08;;;;;;;2.00;1.80;;;;;;;22.31;62.24;101532.75;4854007;29;20030;-92
2021/06/28 03:45:34;;;;;;;2.97;1.70;;;;;;;22.32;62.36;101534.50;4862668;29;20010;-92
2021/06/28 03:48:00;;;;;;;2.25;1.80;;;;;;;22.33;62.04;101530.97;4857925;29;20040;-91
2021/06/28 03:50:25;;;;;;;2.00;1.70;;;;;;;22.32;62.46;101528.38;4856797;29;20034;-91
2021/06/28 03:52:54;;;;;;;3.28;1.80;;;;;;;22.34;62.33;101526.59;4856976;29;20038;-91
2021/06/28 03:55:22;;;;;;;1.65;1.55;;;;;;;22.36;62.32;101530.94;4850859;29;20068;-93
2021/06/28 03:57:48;;;;;;;1.90;1.67;;;;;;;22.35;62.10;101523.09;4845691;29;20029;-93
2021/06/28 04:00:19;;;;;;;2.65;1.70;;;;;;;22.36;62.18;101530.94;4844987;29;20493;-93
2021/06/28 04:02:45;;;;;;;1.77;1.67;;;;;;;22.37;62.03;101523.91;4844826;29;20026;-92
2021/06/28 04:05:15;;;;;;;2.10;1.90;;;;;;;22.38;62.08;101520.41;4845811;29;20369;-92
2021/06/28 04:07:41;;;;;;;1.90;1.67;;;;;;;22.38;61.87;101523.00;4845081;29;20030;-93
2021/06/28 04:10:08;;;;;;;2.00;1.50;;;;;;;22.36;61.95;101520.44;4829536;29;20041;-92
2021/06/28 04:12:34;;;;;;;2.35;1.90;;;;;;;22.39;61.80;101520.38;4845027;29;20075;-92
2021/06/28 04:15:00;;;;;;;2.60;1.30;;;;;;;22.41;62.13;101516.84;4844725;29;20080;-93
2021/06/28 04:17:25;;;;;;;2.50;1.75;;;;;;;22.40;62.03;101518.59;4844307;29;20536;-92
2021/06/28 04:19:51;;;;;;;1.90;1.70;;;;;;;22.41;61.94;101514.22;4844307;29;20177;-92
2021/06/28 04:22:17;;;;;;;1.77;1.67;;;;;;;22.40;61.85;101510.75;4844432;29;20188;-92
2021/06/28 04:24:42;;;;;;;1.98;1.67;;;;;;;22.42;61.74;101508.09;4829197;29;20129;-91
2021/06/28 04:27:07;;;;;;;1.77;1.67;;;;;;;22.42;61.54;101506.34;4844500;29;20033;-92
2021/06/28 04:29:33;;;;;;;1.73;1.63;;;;;;;22.46;61.83;101509.78;4843952;29;20033;-91
2021/06/28 04:31:59;;;;;;;2.35;1.70;;;;;;;22.47;61.77;101503.63;4843825;29;20128;-92
2021/06/28 04:34:24;;;;;;;1.90;1.58;;;;;;;22.47;61.79;101496.63;4843885;29;20037;-91
2021/06/28 04:37:04;;;;;;;1.85;1.50;;;;;;;22.50;61.85;101499.19;4844235;29;20026;-92
2021/06/28 04:39:29;;;;;;;1.70;1.60;;;;;;;22.56;61.21;101498.22;4830337;29;20038;-92
2021/06/28 04:41:55;;;;;;;1.60;1.50;;;;;;;22.69;60.88;101497.06;4845117;29;20599;-93
2021/06/28 04:44:20;;;;;;;3.85;1.73;;;;;;;22.80;60.52;101484.59;4847903;29;20026;-92
2021/06/28 04:46:46;;;;;;;2.10;1.80;;;;;;;22.95;59.97;101490.38;4850847;29;20033;-92
2021/06/28 04:49:12;;;;;;;1.70;1.48;;;;;;;23.12;59.92;101500.56;4852692;29;20053;-92
2021/06/28 04:51:39;;;;;;;1.80;1.60;;;;;;;23.23;60.17;101489.81;4847786;29;20030;-93
2021/06/28 04:54:05;;;;;;;1.63;1.52;;;;;;;23.32;59.95;101492.22;4847503;29;20034;-93
2021/06/28 04:56:30;;;;;;;7.00;1.83;;;;;;;23.33;60.05;101500.06;4845766;29;20446;-93
2021/06/28 04:58:56;;;;;;;2.42;1.80;;;;;;;23.41;59.80;101492.88;4844282;29;20030;-92
2021/06/28 05:01:23;;;;;;;2.00;1.80;;;;;;;23.54;60.11;101496.06;4843720;29;20057;-93
2021/06/28 05:04:07;;;;;;;1.88;1.65;;;;;;;23.58;59.70;101489.84;4844068;29;20046;-92
2021/06/28 05:06:32;;;;;;;2.90;1.92;;;;;;;23.69;59.82;101493.97;4844182;29;20033;-92
2021/06/28 05:08:58;;;;;;;6.00;2.92;;;;;;;23.64;59.31;101501.97;4846861;29;20030;-91
2021/06/28 05:11:23;;;;;;;7.00;4.40;;;;;;;23.29;58.51;101501.03;4843402;29;20117;-92
2021/06/28 05:14:04;;;;;;;5.43;3.72;;;;;;;23.02;58.87;101509.50;4842972;29;20026;-88
2021/06/28 05:16:31;;;;;;;6.97;4.22;;;;;;;22.79;58.81;101505.59;4828626;29;20116;-90
2021/06/28 05:18:56;;;;;;;5.35;4.22;;;;;;;22.75;59.02;101512.66;4842728;29;20049;-91
2021/06/28 05:21:21;;;;;;;7.97;5.68;;;;;;;22.69;58.92;101515.44;4842411;29;20474;-90
2021/06/28 05:23:47;;;;;;;9.43;5.78;;;;;;;22.63;58.83;101514.69;4842965;29;20036;-90
2021/06/28 05:26:12;;;;;;;12.00;6.88;;;;;;;22.55;58.96;101520.06;4842580;29;20030;-91
2021/06/28 05:28:38;;;;;;;7.50;6.70;;;;;;;22.50;58.92;101514.91;4827435;29;20137;-90
2021/06/28 05:31:03;;;;;;;10.55;6.53;;;;;;;22.50;59.03;101516.69;4842074;29;20121;-91
2021/06/28 05:33:30;;;;;;;11.18;7.55;;;;;;;22.50;59.26;101521.94;4827621;29;20026;-91
2021/06/28 05:35:55;;;;;;;8.75;6.80;;;;;;;22.52;58.79;101521.00;4827101;29;20078;-91
2021/06/28 05:38:21;;;;;;;12.00;7.38;;;;;;;22.48;59.16;101527.19;4812247;29;20038;-93
2021/06/28 05:40:46;;;;;;;8.35;7.35;;;;;;;22.46;58.96;101531.59;4826766;29;20065;-89
2021/06/28 05:43:11;;;;;;;10.68;6.95;;;;;;;22.46;59.06;101530.75;4813234;29;20033;-92
2021/06/28 05:45:37;;;;;;;9.68;6.82;;;;;;;22.50;59.00;101532.44;4829053;29;20027;-90
2021/06/28 05:48:03;;;;;;;10.77;6.60;;;;;;;22.50;58.74;101535.03;4830579;29;20388;-90
2021/06/28 05:50:29;;;;;;;9.60;6.90;;;;;;;22.51;58.70;101531.50;4843800;29;20037;-90
2021/06/28 05:52:56;;;;;;;8.80;7.35;;;;;;;22.48;58.92;101529.81;4797741;29;20030;-89
2021/06/28 05:55:22;;;;;;;8.00;6.53;;;;;;;22.49;58.77;101525.44;4827244;29;20182;-92
2021/06/28 05:57:47;;;;;;;8.95;6.85;;;;;;;22.54;58.47;101531.47;4811643;29;20553;-91
2021/06/28 06:00:13;;;;;;;8.13;7.07;;;;;;;22.52;58.70;101521.00;4811782;29;20045;-92
2021/06/28 06:02:39;;;;;;;9.80;6.85;;;;;;;22.54;58.46;101523.59;4827507;29;20106;-92
2021/06/28 06:05:08;;;;;;;9.40;7.30;;;;;;;22.59;58.47;101530.47;4827953;29;20057;-90
2021/06/28 06:07:38;;;;;;;10.50;7.10;;;;;;;22.57;58.50;101524.41;4828782;29;20490;-91
2021/06/28 06:10:05;;;;;;;7.97;6.63;;;;;;;22.61;58.41;101524.34;4849038;29;20067;-90
2021/06/28 06:12:30;;;;;;;7.68;6.55;;;;;;;22.65;58.35;101524.25;4838241;29;20037;-93
2021/06/28 06:14:55;;;;;;;10.02;7.30;;;;;;;22.65;58.36;101526.88;4814081;29;20045;-91
2021/06/28 06:17:21;;;;;;;11.70;6.82;;;;;;;22.67;58.06;101525.09;4812541;29;20486;-92
2021/06/28 06:19:46;;;;;;;8.82;6.50;;;;;;;22.74;58.15;101523.22;4827598;29;20037;-92
2021/06/28 06:22:12;;;;;;;10.75;6.47;;;;;;;22.72;58.29;101517.97;4827318;29;20122;-93
2021/06/28 06:24:37;;;;;;;10.43;6.70;;;;;;;22.77;58.36;101518.75;4796808;29;20041;-93
2021/06/28 06:27:06;;;;;;;8.00;6.13;;;;;;;22.83;58.24;101509.88;4826865;29;20128;-92
2021/06/28 06:29:31;;;;;;;9.77;6.07;;;;;;;22.90;58.11;101510.63;4812211;29;20089;-92
2021/06/28 06:31:57;;;;;;;7.30;6.53;;;;;;;22.91;57.93;101507.97;4802137;29;20050;-92
2021/06/28 06:34:24;;;;;;;8.60;7.13;;;;;;;22.89;57.80;101499.28;4842083;29;20064;-90
2021/06/28 06:36:50;;;;;;;8.30;7.47;;;;;;;22.85;58.44;101491.50;4842001;29;20026;-91
2021/06/28 06:39:16;;;;;;;11.60;6.20;;;;;;;22.80;58.33;101488.97;4843081;29;20038;-90
2021/06/28 06:41:41;;;;;;;10.65;8.40;;;;;;;22.61;59.04;101485.84;4850459;29;20033;-93
2021/06/28 06:44:06;;;;;;;13.10;9.32;;;;;;;22.39;59.32;101481.03;4813816;29;20030;-91
2021/06/28 06:46:32;;;;;;;12.85;9.60;;;;;;;22.40;59.48;101484.50;4827597;29;20403;-90
2021/06/28 06:48:57;;;;;;;12.23;10.85;;;;;;;22.37;59.20;101482.81;4827130;29;20128;-90
2021/06/28 06:51:23;;;;;;;12.43;10.68;;;;;;;22.25;59.58;101476.94;4827244;29;20032;-91
2021/06/28 06:53:48;;;;;;;14.77;10.20;;;;;;;22.26;59.94;101471.69;4844997;29;20030;-91
2021/06/28 06:56:16;;;;;;;13.02;10.10;;;;;;;22.27;60.08;101475.16;4845736;29;20470;-92
2021/06/28 06:58:42;;;;;;;10.98;9.88;;;;;;;22.22;60.01;101475.25;4845135;29;20034;-90
2021/06/28 07:01:17;;;;;;;14.65;9.77;;;;;;;22.16;60.29;101475.31;4831266;29;20128;-91
2021/06/28 07:03:46;;;;;;;12.82;10.50;;;;;;;22.10;60.19;101468.47;4845862;29;20038;-92
2021/06/28 07:06:12;;;;;;;11.35;10.05;;;;;;;22.17;60.03;101475.31;4846075;29;20128;-91
2021/06/28 07:08:37;;;;;;;12.80;9.50;;;;;;;22.18;60.15;101477.03;4845851;29;20090;-92
2021/06/28 07:11:06;;;;;;;10.95;9.77;;;;;;;22.10;60.63;101476.31;4845975;29;20038;-92
2021/06/28 07:13:32;;;;;;;14.02;9.27;;;;;;;22.07;60.87;101478.97;4846307;29;20026;-91
2021/06/28 07:15:57;;;;;;;12.20;9.65;;;;;;;22.06;60.67;101481.63;4845959;29;20022;-90
2021/06/28 07:18:23;;;;;;;10.93;9.35;;;;;;;22.09;60.88;101484.22;4814349;29;20137;-89
2021/06/28 07:20:48;;;;;;;11.40;9.15;;;;;;;22.15;60.44;101478.84;4845148;29;20037;-90
2021/06/28 07:23:14;;;;;;;14.10;9.23;;;;;;;22.20;60.50;101484.88;4845432;29;20026;-90
2021/06/28 07:25:39;;;;;;;12.02;8.98;;;;;;;22.18;60.19;101479.66;4844915;29;20026;-91
2021/06/28 07:28:05;;;;;;;12.02;9.93;;;;;;;22.14;60.75;101482.34;4845212;29;20030;-91
2021/06/28 07:30:30;;;;;;;10.35;9.27;;;;;;;22.13;60.86;101472.78;4846960;29;20030;-91
2021/06/28 07:32:56;;;;;;;10.75;9.60;;;;;;;22.13;60.59;101478.88;4855639;29;20054;-91
2021/06/28 07:35:22;;;;;;;12.57;8.90;;;;;;;22.17;60.37;101482.31;4852228;29;20018;-93
2021/06/28 07:37:53;;;;;;;9.13;8.23;;;;;;;22.16;60.47;101475.31;4832620;29;20061;-93
2021/06/28 07:44:22;;;;;;;11.88;8.32;;;;;;;22.35;60.33;101492.47;4846571;29;20101;-93
2021/06/28 07:46:48;;;;;;;10.27;8.20;;;;;;;22.39;60.22;101501.16;4844573;29;20452;-91
2021/06/28 07:52:35;;;;;;;10.88;8.77;;;;;;;22.48;59.81;101498.34;4846230;29;20057;-91
2021/06/28 07:55:06;;;;;;;9.80;8.63;;;;;;;22.51;59.89;101494.78;4885046;24;20416;-92
2021/06/28 07:57:31;;;;;;;9.27;8.20;;;;;;;22.59;59.74;101499.00;4881486;29;20040;-92
2021/06/28 08:15:24;;;;;;;9.55;7.55;;;;;;;22.84;59.42;101495.84;4882775;29;20124;-90
2021/06/28 08:32:36;;;;;;;10.82;8.07;;;;;;;22.93;59.08;101495.69;4872603;29;20049;-91
2021/06/28 08:35:31;;;;;;;11.48;8.20;;;;;;;22.97;59.35;101499.09;4858335;29;20501;-90
2021/06/28 08:37:59;;;;;;;11.57;8.32;;;;;;;22.97;59.34;101501.72;4860289;29;20048;-92
2021/06/28 08:44:24;;;;;;;12.02;8.80;;;;;;;23.06;59.05;101511.19;4870251;29;20473;-92
2021/06/28 08:50:41;;;;;;;11.98;9.70;;;;;;;23.05;59.30;101514.72;4866220;29;20100;-91
2021/06/28 08:53:24;;;;;;;;;;;;;;;;;;;;;
2021/06/28 08:55:51;;;;;;;11.68;8.93;;;;;;;23.06;58.81;101511.19;4863555;29;20034;-94
2021/06/28 08:58:16;;;;;;;12.75;8.98;;;;;;;23.03;58.98;101506.00;4847221;29;20453;-92
2021/06/28 09:00:42;;;;;;;18.67;9.80;;;;;;;23.05;59.19;101506.84;4832396;29;20041;-92
2021/06/28 09:03:09;;;;;;;13.93;9.88;;;;;;;23.04;59.44;101505.09;4834388;29;20533;-92
2021/06/28 09:05:59;;;;;;;12.20;9.50;;;;;;;23.07;59.25;101505.91;4833220;29;20033;-91
2021/06/28 09:08:25;;;;;;;10.90;9.45;;;;;;;23.06;59.28;101511.19;4850788;29;20110;-92
2021/06/28 09:10:51;;;;;;;11.10;9.82;;;;;;;23.05;59.21;101512.94;4855060;29;20037;-92
2021/06/28 09:13:16;;;;;;;10.52;8.57;;;;;;;23.06;59.12;101522.56;4852817;29;20021;-91
2021/06/28 09:15:49;;;;;;;12.68;9.63;;;;;;;23.08;58.92;101522.50;4872887;29;20017;-93
2021/06/28 09:18:15;;;;;;;11.40;9.95;;;;;;;23.09;59.25;101522.50;4834110;29;20037;-91
2021/06/28 09:20:41;;;;;;;13.77;10.73;;;;;;;23.08;59.18;101515.53;4860280;29;20076;-92
2021/06/28 09:23:24;;;;;;;15.75;11.55;;;;;;;23.10;59.36;101518.09;4840042;29;20436;-91
2021/06/28 09:25:53;;;;;;;15.05;10.23;;;;;;;23.09;58.74;101519.00;4853879;29;20034;-91
2021/06/28 09:28:39;;;;;;;11.55;10.13;;;;;;;23.12;59.21;101516.31;4851170;29;20120;-91
2021/06/28 09:31:05;;;;;;;11.65;8.55;;;;;;;23.12;58.99;101509.28;4871538;29;20059;-90
2021/06/28 09:33:31;;;;;;;11.75;10.55;;;;;;;23.09;58.95;101501.47;4861763;29;20045;-92
2021/06/28 09:39:55;;;;;;;13.35;9.52;;;;;;;23.10;59.22;101508.44;4864343;29;20044;-91
2021/06/28 09:42:23;;;;;;;9.73;8.35;;;;;;;23.08;59.28;101498.88;4864550;29;20041;-91
2021/06/28 09:44:56;;;;;;;15.15;9.40;;;;;;;23.09;59.18;101504.09;4848789;29;20391;-90
2021/06/28 09:47:25;;;;;;;13.23;10.60;;;;;;;23.10;59.14;101508.44;4875254;29;20055;-88
2021/06/28 09:50:08;;;;;;;13.55;9.52;;;;;;;23.09;59.25;101506.75;4877029;29;20081;-89
2021/06/28 09:52:38;;;;;;;12.98;10.43;;;;;;;23.09;59.21;101511.13;4857689;29;20097;-89
2021/06/28 09:55:18;;;;;;;14.65;10.85;;;;;;;23.09;59.54;101512.00;4867382;29;20037;-90
2021/06/28 09:58:12;;;;;;;10.02;8.88;;;;;;;23.12;59.14;101514.53;4865585;29;20116;-90
2021/06/28 10:00:55;;;;;;;13.18;11.73;;;;;;;23.07;59.26;101508.53;4868972;29;20029;-90
2021/06/28 10:03:44;;;;;;;17.52;12.18;;;;;;;23.07;59.20;101511.16;4877376;29;20025;-90
2021/06/28 10:08:51;;;;;;;15.13;11.73;;;;;;;23.07;59.26;101518.19;4869948;29;20034;-92
2021/06/28 10:11:21;;;;;;;13.40;11.57;;;;;;;23.06;59.05;101519.94;4863339;29;20033;-91
2021/06/28 10:13:51;;;;;;;12.90;11.45;;;;;;;23.05;58.73;101523.44;4863058;29;20033;-91
2021/06/28 10:16:19;;;;;;;12.70;10.40;;;;;;;23.07;59.19;101518.19;4863063;29;20373;-92
2021/06/28 10:18:46;;;;;;;14.05;11.35;;;;;;;23.06;58.88;101526.94;4861698;29;20082;-90
2021/06/28 10:21:12;;;;;;;11.57;10.38;;;;;;;23.06;59.04;101524.31;4861995;29;20205;-92
2021/06/28 10:23:39;;;;;;;13.13;11.15;;;;;;;23.04;58.79;101523.47;4862222;29;20493;-92
2021/06/28 10:26:05;;;;;;;13.75;10.80;;;;;;;23.03;59.03;101521.75;4861805;29;20505;-90
2021/06/28 10:28:33;;;;;;;12.85;11.38;;;;;;;23.04;59.19;101529.59;4848199;29;20041;-91
2021/06/28 10:31:00;;;;;;;13.18;11.82;;;;;;;23.02;58.80;101528.78;4852364;29;20037;-92
2021/06/28 10:33:26;;;;;;;13.48;11.25;;;;;;;22.98;58.81;101524.44;4850684;29;20049;-90
2021/06/28 10:36:00;;;;;;;12.15;10.85;;;;;;;22.97;58.97;101526.22;4850543;29;20041;-93
2021/06/28 10:38:51;;;;;;;12.70;11.23;;;;;;;22.95;58.85;101514.88;4867054;29;20169;-91
2021/06/28 10:41:49;;;;;;;15.63;12.00;;;;;;;22.96;58.75;101518.38;4865078;29;20044;-90
2021/06/28 10:44:16;;;;;;;15.18;11.23;;;;;;;22.97;59.07;101522.72;4866330;29;20061;-92
2021/06/28 10:46:55;;;;;;;13.50;12.05;;;;;;;22.95;58.98;101530.63;4864907;29;20446;-92
2021/06/28 10:49:57;;;;;;;13.60;12.10;;;;;;;22.96;59.07;101534.97;4864491;29;20036;-92
2021/06/28 10:52:34;;;;;;;14.70;12.48;;;;;;;22.96;58.98;101531.50;4811391;29;20494;-93
2021/06/28 10:55:19;;;;;;;15.73;13.25;;;;;;;22.95;58.90;101527.13;4856846;29;20077;-94
2021/06/28 10:57:50;;;;;;;14.23;12.73;;;;;;;22.91;58.94;101528.97;4865008;29;20393;-92
2021/06/28 11:00:16;;;;;;;15.93;12.63;;;;;;;22.93;58.90;101537.69;4864348;29;20029;-92
2021/06/28 11:02:43;;;;;;;14.50;11.63;;;;;;;22.91;58.92;101531.59;4863582;29;20033;-89
2021/06/28 11:05:14;;;;;;;13.38;11.50;;;;;;;22.92;58.76;101527.19;4848684;29;20412;-89
2021/06/28 11:07:48;;;;;;;13.93;12.15;;;;;;;22.92;59.00;101528.06;4864067;29;20103;-92
2021/06/28 11:10:52;;;;;;;14.13;11.73;;;;;;;22.91;58.49;101526.34;4864249;29;20025;-93
2021/06/28 11:13:39;;;;;;;16.92;12.63;;;;;;;22.92;58.74;101520.19;4811345;29;20133;-91
2021/06/28 11:17:14;;;;;;;15.77;12.55;;;;;;;22.88;58.83;101509.78;4826445;29;20465;-92
2021/06/28 11:19:45;;;;;;;15.27;13.52;;;;;;;22.90;58.56;101518.50;4837200;29;20038;-92
2021/06/28 11:22:25;;;;;;;14.10;12.55;;;;;;;22.91;58.62;101522.88;4847744;29;20569;-92
2021/06/28 11:25:04;;;;;;;13.93;12.27;;;;;;;22.92;58.67;101507.06;4860826;29;20044;-89
2021/06/28 11:27:30;;;;;;;14.95;12.70;;;;;;;22.92;58.95;101501.81;4865568;29;20037;-90
2021/06/28 11:29:56;;;;;;;12.75;11.55;;;;;;;22.94;58.79;101507.91;4866005;29;20062;-93
2021/06/28 11:32:26;;;;;;;13.88;12.43;;;;;;;22.94;58.60;101499.16;4865632;29;20406;-89
2021/06/28 11:34:52;;;;;;;10.75;9.65;;;;;;;22.97;58.62;101505.22;4865611;29;20046;-90
2021/06/28 11:37:18;;;;;;;12.23;9.70;;;;;;;23.02;58.73;101499.91;4864301;29;20378;-90
2021/06/28 11:40:01;;;;;;;12.27;11.02;;;;;;;23.01;58.78;101500.78;4848390;29;20037;-90
2021/06/28 11:42:33;;;;;;;;;;;;;;;23.03;59.01;101503.38;4866814;29;20048;-91
2021/06/28 11:45:05;;;;;;;11.80;10.63;;;;;;;23.03;58.58;101509.50;4865599;29;20284;-92
2021/06/28 11:48:00;;;;;;;13.10;10.88;;;;;;;23.04;58.48;101508.59;4864033;29;20112;-91
2021/06/28 11:50:31;;;;;;;12.93;11.52;;;;;;;23.00;58.37;101504.31;4863488;29;20136;-90
2021/06/28 11:53:05;;;;;;;12.57;11.10;;;;;;;23.03;58.81;101509.50;4864533;29;20025;-90
2021/06/28 11:55:32;;;;;;;14.23;12.02;;;;;;;23.04;58.39;101502.47;4863024;29;20116;-89
2021/06/28 11:57:59;;;;;;;14.10;11.80;;;;;;;23.03;58.52;101509.50;4863475;29;20034;-89
2021/06/28 12:00:26;;;;;;;15.23;12.20;;;;;;;23.04;58.77;101508.59;4863635;29;20036;-90
2021/06/28 12:03:26;;;;;;;13.90;11.48;;;;;;;23.03;58.32;101504.25;4865558;29;20053;-90
2021/06/28 12:05:52;;;;;;;16.92;12.27;;;;;;;23.02;58.60;101501.63;4878697;29;20041;-89
2021/06/28 12:08:25;;;;;;;14.57;12.13;;;;;;;23.04;58.65;101497.22;4878073;29;20030;-92
2021/06/28 12:10:58;;;;;;;;;;;;;;;23.05;58.80;101499.81;4875916;29;20508;-91
2021/06/28 12:13:37;;;;;;;14.18;11.63;;;;;;;23.06;58.67;101501.56;4868760;29;20384;-89
2021/06/28 12:16:17;;;;;;;14.80;13.02;;;;;;;23.03;58.33;101492.88;4875298;29;20021;-90
2021/06/28 12:18:42;;;;;;;16.60;11.90;;;;;;;23.05;58.45;101502.44;4867791;29;20029;-90
2021/06/28 12:21:11;;;;;;;14.43;13.02;;;;;;;23.05;58.76;101497.19;4853106;29;20037;-89
2021/06/28 12:23:37;;;;;;;16.15;12.35;;;;;;;23.07;58.73;101502.44;4864708;29;20118;-90
2021/06/28 12:29:53;;;;;;;14.02;12.32;;;;;;;23.07;58.83;101507.69;4881393;29;20082;-91
2021/06/28 12:32:24;;;;;;;14.45;12.95;;;;;;;23.04;58.39;101499.84;4882505;29;20465;-90
2021/06/28 12:34:56;;;;;;;14.50;13.00;;;;;;;23.06;58.67;101504.19;4850465;29;20085;-92
2021/06/28 12:41:03;;;;;;;16.85;14.02;;;;;;;23.08;58.75;101501.50;4863847;29;20101;-91
2021/06/28 12:46:50;;;;;;;15.90;13.68;;;;;;;23.07;58.58;101502.44;4864119;29;20105;-92
2021/06/28 12:49:19;;;;;;;17.23;13.50;;;;;;;23.06;58.69;101501.56;4846805;29;20065;-89
2021/06/28 12:51:47;;;;;;;14.98;13.38;;;;;;;23.07;58.15;101502.44;4832015;29;20048;-90
2021/06/28 12:54:27;;;;;;;16.55;13.98;;;;;;;23.06;58.50;101498.94;4846746;29;20099;-90
2021/06/28 12:57:00;;;;;;;15.00;13.10;;;;;;;23.08;58.62;101504.13;4847040;29;20484;-90
2021/06/28 12:59:38;;;;;;;15.57;12.90;;;;;;;23.07;58.66;101500.66;4846522;29;20033;-92
2021/06/28 13:02:04;;;;;;;15.73;13.68;;;;;;;23.03;58.60;101501.63;4864133;29;20090;-92
2021/06/28 13:04:33;;;;;;;16.27;13.75;;;;;;;23.05;58.50;101502.44;4854050;24;20785;-91
2021/06/28 13:06:59;;;;;;;18.45;13.98;;;;;;;23.06;58.43;101500.69;4865673;29;20079;-91
2021/06/28 13:09:32;;;;;;;17.48;13.27;;;;;;;23.08;58.50;101493.63;4864827;29;20041;-90
2021/06/28 13:12:03;;;;;;;16.48;13.63;;;;;;;23.06;58.25;101495.44;4865679;29;20029;-91
2021/06/28 13:17:58;;;;;;;14.38;12.32;;;;;;;23.08;58.29;101499.78;4881947;29;20044;-93
2021/06/28 13:24:22;;;;;;;16.15;13.48;;;;;;;23.09;58.20;101504.09;4882566;29;20059;-92
2021/06/28 13:27:06;;;;;;;16.07;13.77;;;;;;;23.04;57.88;101494.59;4881439;29;20037;-91